<?xml version="1.0" encoding="utf-8"?>
<gpx xmlns="http://www.topografix.com/GPX/1/1" xmlns:xsd="http://www.w3.org/2001/XMLSchema" xmlns:xsi="http://www.w3.org/2001/XMLSchema-instance" version="1.1" creator="Fugawi 4,1,0,1184 http://www.fugawi.com/" xsi:schemaLocation="http://www.topografix.com/GPX/1/1 http://www.topografix.com/GPX/1/1/gpx.xsd">
  <trk>
    <name>ACTIVE LOG (008)</name>
    <desc></desc>
    <trkseg>
      <trkpt lat="47.20182" lon="11.21964">
        <ele>1138.34</ele>
        <time>2008-03-09T07:09:34.000Z</time>
      </trkpt>
      <trkpt lat="47.20191" lon="11.21970">
        <ele>1044.61</ele>
        <time>2008-03-09T07:10:42.000Z</time>
      </trkpt>
      <trkpt lat="47.20167" lon="11.21988">
        <ele>1040.76</ele>
        <time>2008-03-09T07:11:23.000Z</time>
      </trkpt>
      <trkpt lat="47.20146" lon="11.22046">
        <ele>1045.57</ele>
        <time>2008-03-09T07:12:21.000Z</time>
      </trkpt>
      <trkpt lat="47.20067" lon="11.22101">
        <ele>1056.63</ele>
        <time>2008-03-09T07:13:59.000Z</time>
      </trkpt>
      <trkpt lat="47.20043" lon="11.22135">
        <ele>1060.95</ele>
        <time>2008-03-09T07:14:38.000Z</time>
      </trkpt>
      <trkpt lat="47.19966" lon="11.22187">
        <ele>1071.05</ele>
        <time>2008-03-09T07:16:18.000Z</time>
      </trkpt>
      <trkpt lat="47.19903" lon="11.22274">
        <ele>1087.87</ele>
        <time>2008-03-09T07:18:07.000Z</time>
      </trkpt>
      <trkpt lat="47.19861" lon="11.22313">
        <ele>1097.48</ele>
        <time>2008-03-09T07:19:03.000Z</time>
      </trkpt>
      <trkpt lat="47.19779" lon="11.22347">
        <ele>1109.02</ele>
        <time>2008-03-09T07:20:34.000Z</time>
      </trkpt>
      <trkpt lat="47.19689" lon="11.22362">
        <ele>1124.40</ele>
        <time>2008-03-09T07:22:11.000Z</time>
      </trkpt>
      <trkpt lat="47.19586" lon="11.22416">
        <ele>1141.70</ele>
        <time>2008-03-09T07:24:09.000Z</time>
      </trkpt>
      <trkpt lat="47.19547" lon="11.22422">
        <ele>1147.95</ele>
        <time>2008-03-09T07:24:51.000Z</time>
      </trkpt>
      <trkpt lat="47.19404" lon="11.22390">
        <ele>1170.06</ele>
        <time>2008-03-09T07:27:25.000Z</time>
      </trkpt>
      <trkpt lat="47.19334" lon="11.22384">
        <ele>1180.16</ele>
        <time>2008-03-09T07:28:39.000Z</time>
      </trkpt>
      <trkpt lat="47.19247" lon="11.22418">
        <ele>1195.06</ele>
        <time>2008-03-09T07:30:23.000Z</time>
      </trkpt>
      <trkpt lat="47.19197" lon="11.22419">
        <ele>1204.19</ele>
        <time>2008-03-09T07:31:21.000Z</time>
      </trkpt>
      <trkpt lat="47.19169" lon="11.22430">
        <ele>1210.44</ele>
        <time>2008-03-09T07:31:55.000Z</time>
      </trkpt>
      <trkpt lat="47.19112" lon="11.22416">
        <ele>1217.65</ele>
        <time>2008-03-09T07:32:57.000Z</time>
      </trkpt>
      <trkpt lat="47.19042" lon="11.22361">
        <ele>1226.30</ele>
        <time>2008-03-09T07:34:17.000Z</time>
      </trkpt>
      <trkpt lat="47.18924" lon="11.22325">
        <ele>1240.72</ele>
        <time>2008-03-09T07:36:19.000Z</time>
      </trkpt>
      <trkpt lat="47.18795" lon="11.22311">
        <ele>1255.62</ele>
        <time>2008-03-09T07:38:35.000Z</time>
      </trkpt>
      <trkpt lat="47.18724" lon="11.22290">
        <ele>1265.23</ele>
        <time>2008-03-09T07:39:53.000Z</time>
      </trkpt>
      <trkpt lat="47.18617" lon="11.22196">
        <ele>1282.06</ele>
        <time>2008-03-09T07:42:11.000Z</time>
      </trkpt>
      <trkpt lat="47.18536" lon="11.22145">
        <ele>1298.88</ele>
        <time>2008-03-09T07:43:59.000Z</time>
      </trkpt>
      <trkpt lat="47.18484" lon="11.22150">
        <ele>1309.45</ele>
        <time>2008-03-09T07:45:07.000Z</time>
      </trkpt>
      <trkpt lat="47.18450" lon="11.22140">
        <ele>1315.22</ele>
        <time>2008-03-09T07:45:49.000Z</time>
      </trkpt>
      <trkpt lat="47.18336" lon="11.22046">
        <ele>1333.97</ele>
        <time>2008-03-09T07:48:18.000Z</time>
      </trkpt>
      <trkpt lat="47.18294" lon="11.22036">
        <ele>1340.22</ele>
        <time>2008-03-09T07:49:08.000Z</time>
      </trkpt>
      <trkpt lat="47.18175" lon="11.22054">
        <ele>1363.29</ele>
        <time>2008-03-09T07:51:45.000Z</time>
      </trkpt>
      <trkpt lat="47.18091" lon="11.22099">
        <ele>1378.19</ele>
        <time>2008-03-09T07:53:31.000Z</time>
      </trkpt>
      <trkpt lat="47.18059" lon="11.22084">
        <ele>1382.51</ele>
        <time>2008-03-09T07:54:09.000Z</time>
      </trkpt>
      <trkpt lat="47.18006" lon="11.22090">
        <ele>1390.20</ele>
        <time>2008-03-09T07:55:11.000Z</time>
      </trkpt>
      <trkpt lat="47.17949" lon="11.22078">
        <ele>1398.86</ele>
        <time>2008-03-09T07:56:17.000Z</time>
      </trkpt>
      <trkpt lat="47.17821" lon="11.22020">
        <ele>1417.60</ele>
        <time>2008-03-09T07:58:46.000Z</time>
      </trkpt>
      <trkpt lat="47.17740" lon="11.22006">
        <ele>1426.25</ele>
        <time>2008-03-09T08:00:09.000Z</time>
      </trkpt>
      <trkpt lat="47.17687" lon="11.21972">
        <ele>1431.06</ele>
        <time>2008-03-09T08:01:09.000Z</time>
      </trkpt>
      <trkpt lat="47.17651" lon="11.21936">
        <ele>1434.91</ele>
        <time>2008-03-09T08:01:52.000Z</time>
      </trkpt>
      <trkpt lat="47.17610" lon="11.21874">
        <ele>1438.27</ele>
        <time>2008-03-09T08:02:45.000Z</time>
      </trkpt>
      <trkpt lat="47.17552" lon="11.21837">
        <ele>1440.19</ele>
        <time>2008-03-09T08:03:42.000Z</time>
      </trkpt>
      <trkpt lat="47.17505" lon="11.21785">
        <ele>1444.52</ele>
        <time>2008-03-09T08:04:56.000Z</time>
      </trkpt>
      <trkpt lat="47.17492" lon="11.21758">
        <ele>1446.44</ele>
        <time>2008-03-09T08:05:57.000Z</time>
      </trkpt>
      <trkpt lat="47.17432" lon="11.21712">
        <ele>1452.69</ele>
        <time>2008-03-09T08:12:18.000Z</time>
      </trkpt>
      <trkpt lat="47.17429" lon="11.21700">
        <ele>1453.65</ele>
        <time>2008-03-09T08:12:30.000Z</time>
      </trkpt>
      <trkpt lat="47.17320" lon="11.21652">
        <ele>1463.74</ele>
        <time>2008-03-09T08:14:33.000Z</time>
      </trkpt>
      <trkpt lat="47.17202" lon="11.21572">
        <ele>1475.76</ele>
        <time>2008-03-09T08:16:59.000Z</time>
      </trkpt>
      <trkpt lat="47.17109" lon="11.21547">
        <ele>1489.22</ele>
        <time>2008-03-09T08:18:52.000Z</time>
      </trkpt>
      <trkpt lat="47.17089" lon="11.21531">
        <ele>1492.10</ele>
        <time>2008-03-09T08:19:23.000Z</time>
      </trkpt>
      <trkpt lat="47.17107" lon="11.21509">
        <ele>1496.91</ele>
        <time>2008-03-09T08:20:00.000Z</time>
      </trkpt>
      <trkpt lat="47.17096" lon="11.21453">
        <ele>1504.12</ele>
        <time>2008-03-09T08:20:59.000Z</time>
      </trkpt>
      <trkpt lat="47.17072" lon="11.21423">
        <ele>1512.77</ele>
        <time>2008-03-09T08:21:52.000Z</time>
      </trkpt>
      <trkpt lat="47.17086" lon="11.21405">
        <ele>1517.58</ele>
        <time>2008-03-09T08:22:24.000Z</time>
      </trkpt>
      <trkpt lat="47.17104" lon="11.21400">
        <ele>1518.54</ele>
        <time>2008-03-09T08:22:51.000Z</time>
      </trkpt>
      <trkpt lat="47.17100" lon="11.21373">
        <ele>1522.87</ele>
        <time>2008-03-09T08:23:34.000Z</time>
      </trkpt>
      <trkpt lat="47.17077" lon="11.21351">
        <ele>1527.67</ele>
        <time>2008-03-09T08:27:56.000Z</time>
      </trkpt>
      <trkpt lat="47.17052" lon="11.21361">
        <ele>1532.00</ele>
        <time>2008-03-09T08:28:29.000Z</time>
      </trkpt>
      <trkpt lat="47.16949" lon="11.21337">
        <ele>1544.98</ele>
        <time>2008-03-09T08:30:37.000Z</time>
      </trkpt>
      <trkpt lat="47.16921" lon="11.21317">
        <ele>1550.26</ele>
        <time>2008-03-09T08:31:19.000Z</time>
      </trkpt>
      <trkpt lat="47.16911" lon="11.21294">
        <ele>1552.67</ele>
        <time>2008-03-09T08:31:53.000Z</time>
      </trkpt>
      <trkpt lat="47.16899" lon="11.21214">
        <ele>1560.36</ele>
        <time>2008-03-09T08:32:59.000Z</time>
      </trkpt>
      <trkpt lat="47.16888" lon="11.21198">
        <ele>1563.24</ele>
        <time>2008-03-09T08:33:18.000Z</time>
      </trkpt>
      <trkpt lat="47.16872" lon="11.21208">
        <ele>1564.68</ele>
        <time>2008-03-09T08:33:36.000Z</time>
      </trkpt>
      <trkpt lat="47.16845" lon="11.21256">
        <ele>1569.01</ele>
        <time>2008-03-09T08:34:25.000Z</time>
      </trkpt>
      <trkpt lat="47.16770" lon="11.21325">
        <ele>1582.95</ele>
        <time>2008-03-09T08:36:16.000Z</time>
      </trkpt>
      <trkpt lat="47.16725" lon="11.21317">
        <ele>1590.16</ele>
        <time>2008-03-09T08:37:17.000Z</time>
      </trkpt>
      <trkpt lat="47.16757" lon="11.21284">
        <ele>1597.85</ele>
        <time>2008-03-09T08:38:11.000Z</time>
      </trkpt>
      <trkpt lat="47.16783" lon="11.21191">
        <ele>1611.79</ele>
        <time>2008-03-09T08:39:51.000Z</time>
      </trkpt>
      <trkpt lat="47.16794" lon="11.21084">
        <ele>1625.73</ele>
        <time>2008-03-09T08:41:36.000Z</time>
      </trkpt>
      <trkpt lat="47.16776" lon="11.20990">
        <ele>1636.30</ele>
        <time>2008-03-09T08:43:04.000Z</time>
      </trkpt>
      <trkpt lat="47.16780" lon="11.20881">
        <ele>1646.40</ele>
        <time>2008-03-09T08:44:37.000Z</time>
      </trkpt>
      <trkpt lat="47.16773" lon="11.20821">
        <ele>1650.24</ele>
        <time>2008-03-09T08:45:25.000Z</time>
      </trkpt>
      <trkpt lat="47.16786" lon="11.20796">
        <ele>1651.68</ele>
        <time>2008-03-09T08:45:49.000Z</time>
      </trkpt>
      <trkpt lat="47.16806" lon="11.20795">
        <ele>1653.12</ele>
        <time>2008-03-09T08:46:10.000Z</time>
      </trkpt>
      <trkpt lat="47.16834" lon="11.20829">
        <ele>1657.45</ele>
        <time>2008-03-09T08:46:50.000Z</time>
      </trkpt>
      <trkpt lat="47.16867" lon="11.20848">
        <ele>1661.78</ele>
        <time>2008-03-09T08:47:32.000Z</time>
      </trkpt>
      <trkpt lat="47.16949" lon="11.20864">
        <ele>1670.43</ele>
        <time>2008-03-09T08:49:11.000Z</time>
      </trkpt>
      <trkpt lat="47.16974" lon="11.20857">
        <ele>1673.31</ele>
        <time>2008-03-09T08:50:19.000Z</time>
      </trkpt>
      <trkpt lat="47.16952" lon="11.20837">
        <ele>1677.64</ele>
        <time>2008-03-09T08:51:01.000Z</time>
      </trkpt>
      <trkpt lat="47.16881" lon="11.20735">
        <ele>1691.58</ele>
        <time>2008-03-09T08:53:07.000Z</time>
      </trkpt>
      <trkpt lat="47.16826" lon="11.20628">
        <ele>1702.15</ele>
        <time>2008-03-09T08:54:56.000Z</time>
      </trkpt>
      <trkpt lat="47.16828" lon="11.20612">
        <ele>1703.59</ele>
        <time>2008-03-09T08:55:15.000Z</time>
      </trkpt>
      <trkpt lat="47.16868" lon="11.20644">
        <ele>1709.36</ele>
        <time>2008-03-09T08:56:14.000Z</time>
      </trkpt>
      <trkpt lat="47.16889" lon="11.20645">
        <ele>1713.21</ele>
        <time>2008-03-09T08:56:49.000Z</time>
      </trkpt>
      <trkpt lat="47.16892" lon="11.20631">
        <ele>1715.13</ele>
        <time>2008-03-09T08:57:07.000Z</time>
      </trkpt>
      <trkpt lat="47.16862" lon="11.20542">
        <ele>1724.74</ele>
        <time>2008-03-09T08:58:40.000Z</time>
      </trkpt>
      <trkpt lat="47.16827" lon="11.20479">
        <ele>1731.47</ele>
        <time>2008-03-09T08:59:56.000Z</time>
      </trkpt>
      <trkpt lat="47.16765" lon="11.20433">
        <ele>1730.51</ele>
        <time>2008-03-09T09:01:09.000Z</time>
      </trkpt>
      <trkpt lat="47.16713" lon="11.20372">
        <ele>1728.59</ele>
        <time>2008-03-09T09:02:03.000Z</time>
      </trkpt>
      <trkpt lat="47.16652" lon="11.20323">
        <ele>1726.18</ele>
        <time>2008-03-09T09:03:06.000Z</time>
      </trkpt>
      <trkpt lat="47.16625" lon="11.20320">
        <ele>1727.63</ele>
        <time>2008-03-09T09:03:38.000Z</time>
      </trkpt>
      <trkpt lat="47.16614" lon="11.20297">
        <ele>1731.47</ele>
        <time>2008-03-09T09:04:09.000Z</time>
      </trkpt>
      <trkpt lat="47.16579" lon="11.20269">
        <ele>1735.32</ele>
        <time>2008-03-09T09:05:07.000Z</time>
      </trkpt>
      <trkpt lat="47.16521" lon="11.20198">
        <ele>1748.78</ele>
        <time>2008-03-09T09:07:07.000Z</time>
      </trkpt>
      <trkpt lat="47.16454" lon="11.20198">
        <ele>1760.31</ele>
        <time>2008-03-09T09:08:56.000Z</time>
      </trkpt>
      <trkpt lat="47.16401" lon="11.20176">
        <ele>1773.29</ele>
        <time>2008-03-09T09:10:39.000Z</time>
      </trkpt>
      <trkpt lat="47.16353" lon="11.20181">
        <ele>1782.42</ele>
        <time>2008-03-09T09:12:12.000Z</time>
      </trkpt>
      <trkpt lat="47.16218" lon="11.20225">
        <ele>1829.53</ele>
        <time>2008-03-09T09:18:03.000Z</time>
      </trkpt>
      <trkpt lat="47.16193" lon="11.20225">
        <ele>1837.22</ele>
        <time>2008-03-09T09:19:02.000Z</time>
      </trkpt>
      <trkpt lat="47.16188" lon="11.20249">
        <ele>1845.87</ele>
        <time>2008-03-09T09:20:17.000Z</time>
      </trkpt>
      <trkpt lat="47.16179" lon="11.20248">
        <ele>1852.12</ele>
        <time>2008-03-09T09:20:50.000Z</time>
      </trkpt>
      <trkpt lat="47.16168" lon="11.20267">
        <ele>1857.89</ele>
        <time>2008-03-09T09:21:38.000Z</time>
      </trkpt>
      <trkpt lat="47.16152" lon="11.20273">
        <ele>1860.29</ele>
        <time>2008-03-09T09:22:23.000Z</time>
      </trkpt>
      <trkpt lat="47.16097" lon="11.20254">
        <ele>1865.09</ele>
        <time>2008-03-09T09:24:01.000Z</time>
      </trkpt>
      <trkpt lat="47.16046" lon="11.20263">
        <ele>1880.48</ele>
        <time>2008-03-09T09:26:00.000Z</time>
      </trkpt>
      <trkpt lat="47.16022" lon="11.20252">
        <ele>1886.24</ele>
        <time>2008-03-09T09:26:54.000Z</time>
      </trkpt>
      <trkpt lat="47.16015" lon="11.20264">
        <ele>1890.57</ele>
        <time>2008-03-09T09:27:23.000Z</time>
      </trkpt>
      <trkpt lat="47.16062" lon="11.20391">
        <ele>1922.77</ele>
        <time>2008-03-09T09:31:31.000Z</time>
      </trkpt>
      <trkpt lat="47.16078" lon="11.20409">
        <ele>1925.66</ele>
        <time>2008-03-09T09:32:11.000Z</time>
      </trkpt>
      <trkpt lat="47.16067" lon="11.20457">
        <ele>1938.64</ele>
        <time>2008-03-09T09:33:40.000Z</time>
      </trkpt>
      <trkpt lat="47.15947" lon="11.20408">
        <ele>1954.50</ele>
        <time>2008-03-09T09:42:57.000Z</time>
      </trkpt>
      <trkpt lat="47.15883" lon="11.20366">
        <ele>1962.19</ele>
        <time>2008-03-09T09:44:59.000Z</time>
      </trkpt>
      <trkpt lat="47.15789" lon="11.20334">
        <ele>1963.63</ele>
        <time>2008-03-09T09:47:01.000Z</time>
      </trkpt>
      <trkpt lat="47.15659" lon="11.20314">
        <ele>1977.09</ele>
        <time>2008-03-09T09:50:01.000Z</time>
      </trkpt>
      <trkpt lat="47.15605" lon="11.20355">
        <ele>1991.03</ele>
        <time>2008-03-09T09:52:48.000Z</time>
      </trkpt>
      <trkpt lat="47.15573" lon="11.20339">
        <ele>1999.68</ele>
        <time>2008-03-09T09:53:53.000Z</time>
      </trkpt>
      <trkpt lat="47.15466" lon="11.20332">
        <ele>2019.87</ele>
        <time>2008-03-09T09:57:01.000Z</time>
      </trkpt>
      <trkpt lat="47.15406" lon="11.20370">
        <ele>2041.50</ele>
        <time>2008-03-09T09:59:36.000Z</time>
      </trkpt>
      <trkpt lat="47.15349" lon="11.20346">
        <ele>2059.76</ele>
        <time>2008-03-09T10:02:02.000Z</time>
      </trkpt>
      <trkpt lat="47.15344" lon="11.20383">
        <ele>2069.38</ele>
        <time>2008-03-09T10:03:10.000Z</time>
      </trkpt>
      <trkpt lat="47.15326" lon="11.20407">
        <ele>2076.59</ele>
        <time>2008-03-09T10:04:08.000Z</time>
      </trkpt>
      <trkpt lat="47.15297" lon="11.20410">
        <ele>2087.64</ele>
        <time>2008-03-09T10:05:18.000Z</time>
      </trkpt>
      <trkpt lat="47.15237" lon="11.20365">
        <ele>2112.63</ele>
        <time>2008-03-09T10:08:31.000Z</time>
      </trkpt>
      <trkpt lat="47.15161" lon="11.20232">
        <ele>2146.28</ele>
        <time>2008-03-09T10:13:36.000Z</time>
      </trkpt>
      <trkpt lat="47.15120" lon="11.20226">
        <ele>2164.55</ele>
        <time>2008-03-09T10:15:53.000Z</time>
      </trkpt>
      <trkpt lat="47.14981" lon="11.20053">
        <ele>2190.98</ele>
        <time>2008-03-09T10:22:05.000Z</time>
      </trkpt>
      <trkpt lat="47.14892" lon="11.19962">
        <ele>2209.25</ele>
        <time>2008-03-09T10:32:57.000Z</time>
      </trkpt>
      <trkpt lat="47.14887" lon="11.19854">
        <ele>2223.19</ele>
        <time>2008-03-09T10:35:01.000Z</time>
      </trkpt>
      <trkpt lat="47.14903" lon="11.19784">
        <ele>2232.32</ele>
        <time>2008-03-09T10:36:22.000Z</time>
      </trkpt>
      <trkpt lat="47.14940" lon="11.19769">
        <ele>2237.61</ele>
        <time>2008-03-09T10:37:15.000Z</time>
      </trkpt>
      <trkpt lat="47.15020" lon="11.19706">
        <ele>2259.72</ele>
        <time>2008-03-09T10:40:09.000Z</time>
      </trkpt>
      <trkpt lat="47.15047" lon="11.19724">
        <ele>2266.45</ele>
        <time>2008-03-09T10:41:05.000Z</time>
      </trkpt>
      <trkpt lat="47.15066" lon="11.19697">
        <ele>2271.73</ele>
        <time>2008-03-09T10:41:57.000Z</time>
      </trkpt>
      <trkpt lat="47.15094" lon="11.19693">
        <ele>2282.31</ele>
        <time>2008-03-09T10:42:58.000Z</time>
      </trkpt>
      <trkpt lat="47.15107" lon="11.19658">
        <ele>2289.04</ele>
        <time>2008-03-09T10:44:13.000Z</time>
      </trkpt>
      <trkpt lat="47.15069" lon="11.19568">
        <ele>2302.98</ele>
        <time>2008-03-09T10:48:58.000Z</time>
      </trkpt>
      <trkpt lat="47.15060" lon="11.19522">
        <ele>2306.82</ele>
        <time>2008-03-09T10:49:51.000Z</time>
      </trkpt>
      <trkpt lat="47.15021" lon="11.19430">
        <ele>2316.43</ele>
        <time>2008-03-09T10:51:54.000Z</time>
      </trkpt>
      <trkpt lat="47.14958" lon="11.19349">
        <ele>2334.22</ele>
        <time>2008-03-09T10:54:38.000Z</time>
      </trkpt>
      <trkpt lat="47.14943" lon="11.19346">
        <ele>2338.06</ele>
        <time>2008-03-09T10:55:12.000Z</time>
      </trkpt>
      <trkpt lat="47.14924" lon="11.19323">
        <ele>2343.83</ele>
        <time>2008-03-09T10:56:16.000Z</time>
      </trkpt>
      <trkpt lat="47.14890" lon="11.19230">
        <ele>2351.04</ele>
        <time>2008-03-09T10:58:03.000Z</time>
      </trkpt>
      <trkpt lat="47.14861" lon="11.19174">
        <ele>2354.89</ele>
        <time>2008-03-09T10:59:03.000Z</time>
      </trkpt>
      <trkpt lat="47.14846" lon="11.19104">
        <ele>2359.69</ele>
        <time>2008-03-09T11:00:12.000Z</time>
      </trkpt>
      <trkpt lat="47.14808" lon="11.19049">
        <ele>2363.54</ele>
        <time>2008-03-09T11:01:36.000Z</time>
      </trkpt>
      <trkpt lat="47.14794" lon="11.19011">
        <ele>2367.38</ele>
        <time>2008-03-09T11:02:15.000Z</time>
      </trkpt>
      <trkpt lat="47.14797" lon="11.18933">
        <ele>2375.07</ele>
        <time>2008-03-09T11:03:47.000Z</time>
      </trkpt>
      <trkpt lat="47.14773" lon="11.18868">
        <ele>2380.84</ele>
        <time>2008-03-09T11:04:58.000Z</time>
      </trkpt>
      <trkpt lat="47.14719" lon="11.18778">
        <ele>2391.42</ele>
        <time>2008-03-09T11:07:08.000Z</time>
      </trkpt>
      <trkpt lat="47.14706" lon="11.18742">
        <ele>2399.59</ele>
        <time>2008-03-09T11:08:11.000Z</time>
      </trkpt>
      <trkpt lat="47.14703" lon="11.18686">
        <ele>2404.39</ele>
        <time>2008-03-09T11:09:17.000Z</time>
      </trkpt>
      <trkpt lat="47.14684" lon="11.18606">
        <ele>2410.64</ele>
        <time>2008-03-09T11:10:44.000Z</time>
      </trkpt>
      <trkpt lat="47.14645" lon="11.18536">
        <ele>2423.62</ele>
        <time>2008-03-09T11:12:41.000Z</time>
      </trkpt>
      <trkpt lat="47.14627" lon="11.18463">
        <ele>2432.75</ele>
        <time>2008-03-09T11:14:27.000Z</time>
      </trkpt>
      <trkpt lat="47.14643" lon="11.18418">
        <ele>2440.92</ele>
        <time>2008-03-09T11:15:42.000Z</time>
      </trkpt>
      <trkpt lat="47.14627" lon="11.18383">
        <ele>2448.13</ele>
        <time>2008-03-09T11:16:54.000Z</time>
      </trkpt>
      <trkpt lat="47.14618" lon="11.18339">
        <ele>2456.31</ele>
        <time>2008-03-09T11:18:04.000Z</time>
      </trkpt>
      <trkpt lat="47.14588" lon="11.18294">
        <ele>2463.04</ele>
        <time>2008-03-09T11:19:28.000Z</time>
      </trkpt>
      <trkpt lat="47.14537" lon="11.18258">
        <ele>2474.09</ele>
        <time>2008-03-09T11:21:25.000Z</time>
      </trkpt>
      <trkpt lat="47.14523" lon="11.18220">
        <ele>2478.90</ele>
        <time>2008-03-09T11:22:19.000Z</time>
      </trkpt>
      <trkpt lat="47.14473" lon="11.17956">
        <ele>2507.26</ele>
        <time>2008-03-09T11:30:23.000Z</time>
      </trkpt>
      <trkpt lat="47.14428" lon="11.17823">
        <ele>2522.64</ele>
        <time>2008-03-09T11:33:12.000Z</time>
      </trkpt>
      <trkpt lat="47.14438" lon="11.17787">
        <ele>2527.92</ele>
        <time>2008-03-09T11:34:08.000Z</time>
      </trkpt>
      <trkpt lat="47.14437" lon="11.17719">
        <ele>2529.85</ele>
        <time>2008-03-09T11:34:57.000Z</time>
      </trkpt>
      <trkpt lat="47.14430" lon="11.17689">
        <ele>2533.21</ele>
        <time>2008-03-09T11:35:35.000Z</time>
      </trkpt>
      <trkpt lat="47.14402" lon="11.17637">
        <ele>2538.98</ele>
        <time>2008-03-09T11:36:54.000Z</time>
      </trkpt>
      <trkpt lat="47.14369" lon="11.17502">
        <ele>2560.13</ele>
        <time>2008-03-09T11:40:30.000Z</time>
      </trkpt>
      <trkpt lat="47.14314" lon="11.17418">
        <ele>2579.35</ele>
        <time>2008-03-09T11:43:39.000Z</time>
      </trkpt>
      <trkpt lat="47.14237" lon="11.17335">
        <ele>2597.14</ele>
        <time>2008-03-09T11:46:41.000Z</time>
      </trkpt>
      <trkpt lat="47.14206" lon="11.17331">
        <ele>2600.98</ele>
        <time>2008-03-09T11:47:40.000Z</time>
      </trkpt>
      <trkpt lat="47.14180" lon="11.17343">
        <ele>2609.16</ele>
        <time>2008-03-09T11:49:07.000Z</time>
      </trkpt>
      <trkpt lat="47.14179" lon="11.17311">
        <ele>2614.92</ele>
        <time>2008-03-09T11:50:03.000Z</time>
      </trkpt>
      <trkpt lat="47.14167" lon="11.17329">
        <ele>2619.73</ele>
        <time>2008-03-09T11:50:48.000Z</time>
      </trkpt>
      <trkpt lat="47.14164" lon="11.17295">
        <ele>2626.94</ele>
        <time>2008-03-09T11:51:54.000Z</time>
      </trkpt>
      <trkpt lat="47.14144" lon="11.17321">
        <ele>2633.67</ele>
        <time>2008-03-09T11:53:05.000Z</time>
      </trkpt>
      <trkpt lat="47.14129" lon="11.17299">
        <ele>2641.36</ele>
        <time>2008-03-09T11:54:12.000Z</time>
      </trkpt>
      <trkpt lat="47.14051" lon="11.17278">
        <ele>2661.55</ele>
        <time>2008-03-09T11:57:18.000Z</time>
      </trkpt>
      <trkpt lat="47.14026" lon="11.17295">
        <ele>2668.76</ele>
        <time>2008-03-09T11:58:27.000Z</time>
      </trkpt>
      <trkpt lat="47.14018" lon="11.17278">
        <ele>2672.60</ele>
        <time>2008-03-09T11:59:06.000Z</time>
      </trkpt>
      <trkpt lat="47.13987" lon="11.17319">
        <ele>2680.29</ele>
        <time>2008-03-09T12:00:37.000Z</time>
      </trkpt>
      <trkpt lat="47.13974" lon="11.17283">
        <ele>2686.54</ele>
        <time>2008-03-09T12:01:53.000Z</time>
      </trkpt>
      <trkpt lat="47.13955" lon="11.17303">
        <ele>2693.75</ele>
        <time>2008-03-09T12:03:00.000Z</time>
      </trkpt>
      <trkpt lat="47.13903" lon="11.17314">
        <ele>2708.17</ele>
        <time>2008-03-09T12:05:33.000Z</time>
      </trkpt>
      <trkpt lat="47.13901" lon="11.17306">
        <ele>2711.54</ele>
        <time>2008-03-09T12:06:04.000Z</time>
      </trkpt>
      <trkpt lat="47.13872" lon="11.17310">
        <ele>2723.07</ele>
        <time>2008-03-09T12:07:51.000Z</time>
      </trkpt>
      <trkpt lat="47.13879" lon="11.17288">
        <ele>2727.40</ele>
        <time>2008-03-09T12:09:43.000Z</time>
      </trkpt>
      <trkpt lat="47.13877" lon="11.17218">
        <ele>2744.70</ele>
        <time>2008-03-09T12:12:39.000Z</time>
      </trkpt>
      <trkpt lat="47.13859" lon="11.17231">
        <ele>2749.03</ele>
        <time>2008-03-09T12:14:13.000Z</time>
      </trkpt>
      <trkpt lat="47.13867" lon="11.17182">
        <ele>2760.08</ele>
        <time>2008-03-09T12:16:47.000Z</time>
      </trkpt>
      <trkpt lat="47.13862" lon="11.17086">
        <ele>2789.88</ele>
        <time>2008-03-09T12:23:35.000Z</time>
      </trkpt>
      <trkpt lat="47.13871" lon="11.17083">
        <ele>2794.21</ele>
        <time>2008-03-09T12:24:34.000Z</time>
      </trkpt>
      <trkpt lat="47.13864" lon="11.17040">
        <ele>2802.86</ele>
        <time>2008-03-09T12:26:27.000Z</time>
      </trkpt>
      <trkpt lat="47.13854" lon="11.17037">
        <ele>2807.19</ele>
        <time>2008-03-09T12:27:08.000Z</time>
      </trkpt>
      <trkpt lat="47.13854" lon="11.16989">
        <ele>2818.72</ele>
        <time>2008-03-09T12:29:43.000Z</time>
      </trkpt>
      <trkpt lat="47.13843" lon="11.16990">
        <ele>2824.01</ele>
        <time>2008-03-09T12:30:44.000Z</time>
      </trkpt>
      <trkpt lat="47.13857" lon="11.16953">
        <ele>2831.22</ele>
        <time>2008-03-09T12:32:43.000Z</time>
      </trkpt>
      <trkpt lat="47.13843" lon="11.16948">
        <ele>2837.95</ele>
        <time>2008-03-09T12:41:03.000Z</time>
      </trkpt>
    </trkseg>
  </trk>
</gpx>
